createdAt,value
2019-03-05T08:51:33.844Z,988.47
2019-03-05T08:53:33.796Z,988.53
2019-03-05T08:55:33.815Z,988.53
2019-03-05T08:57:33.828Z,988.44
2019-03-05T08:59:33.979Z,988.52
2019-03-05T09:01:36.533Z,988.52
2019-03-05T09:03:33.835Z,988.61
2019-03-05T09:05:33.774Z,988.54
2019-03-05T09:07:33.788Z,988.56
2019-03-05T09:09:33.827Z,988.69
2019-03-05T09:11:33.828Z,988.65
2019-03-05T09:13:33.795Z,988.62
2019-03-05T09:15:33.931Z,988.64
2019-03-05T09:17:33.784Z,988.71
2019-03-05T09:19:33.773Z,988.63
2019-03-05T09:21:33.877Z,988.68
2019-03-05T09:23:33.830Z,988.66
2019-03-05T09:25:33.816Z,988.68
2019-03-05T09:27:33.972Z,988.69
2019-03-05T09:29:33.855Z,988.71
2019-03-05T09:31:33.758Z,988.71
2019-03-05T09:33:33.793Z,988.70
2019-03-05T09:35:33.814Z,988.72
2019-03-05T09:37:33.810Z,988.75
2019-03-05T09:39:33.845Z,988.75
2019-03-05T09:41:33.832Z,988.77
2019-03-05T09:43:33.839Z,988.76
2019-03-05T09:45:33.902Z,988.76
2019-03-05T09:47:33.896Z,988.72
2019-03-05T09:49:33.785Z,988.74
2019-03-05T09:51:33.895Z,988.73
2019-03-05T09:53:33.828Z,988.71
2019-03-05T09:55:33.921Z,988.73
2019-03-05T09:57:33.893Z,988.75
2019-03-05T09:59:33.904Z,988.80
2019-03-05T10:01:33.805Z,988.84
2019-03-05T10:03:33.869Z,988.93
2019-03-05T10:05:33.830Z,988.88
2019-03-05T10:07:33.882Z,988.92
2019-03-05T10:09:33.881Z,988.94
2019-03-05T10:11:33.949Z,988.96
2019-03-05T10:13:33.905Z,989.03
2019-03-05T10:15:33.932Z,988.96
2019-03-05T10:17:37.926Z,989.00
2019-03-05T10:19:33.819Z,988.96
2019-03-05T10:21:33.853Z,988.99
2019-03-05T10:23:33.849Z,988.87
2019-03-05T10:25:33.870Z,988.90
2019-03-05T10:27:33.926Z,988.95
2019-03-05T10:29:33.909Z,988.98
2019-03-05T10:31:33.920Z,988.90
2019-03-05T10:33:33.859Z,988.97
2019-03-05T10:35:33.850Z,988.96
2019-03-05T10:37:33.836Z,988.99
2019-03-05T10:39:33.894Z,988.93
2019-03-05T10:41:33.872Z,989.10
2019-03-05T10:43:33.885Z,989.05
2019-03-05T10:45:33.895Z,989.04
2019-03-05T10:47:33.919Z,989.09
2019-03-05T10:49:33.941Z,989.11
2019-03-05T10:51:33.872Z,989.10
2019-03-05T10:53:33.866Z,989.19
2019-03-05T10:55:33.862Z,989.19
2019-03-05T10:57:33.948Z,989.18
2019-03-05T10:59:33.890Z,989.15
2019-03-05T11:01:33.920Z,989.20
2019-03-05T11:03:33.986Z,989.18
2019-03-05T11:05:33.926Z,989.24
2019-03-05T11:07:33.962Z,989.26
2019-03-05T11:09:33.881Z,989.17
2019-03-05T11:11:33.891Z,989.23
2019-03-05T11:13:33.890Z,989.17
2019-03-05T11:15:34.077Z,989.24
2019-03-05T11:17:33.905Z,989.21
2019-03-05T11:19:33.940Z,989.28
2019-03-05T11:21:33.995Z,989.26
2019-03-05T11:23:33.938Z,989.30
2019-03-05T11:25:33.976Z,989.33
2019-03-05T11:27:33.876Z,989.36
2019-03-05T11:29:33.889Z,989.42
2019-03-05T11:31:33.902Z,989.32
2019-03-05T11:33:33.944Z,989.37
2019-03-05T11:35:33.923Z,989.36
2019-03-05T11:37:33.975Z,989.35
2019-03-05T11:39:33.972Z,989.43
2019-03-05T11:41:33.964Z,989.47
2019-03-05T11:43:33.980Z,989.40
2019-03-05T11:45:33.906Z,989.46
2019-03-05T11:47:33.925Z,989.42
2019-03-05T11:49:33.926Z,989.50
2019-03-05T11:51:33.954Z,989.48
2019-03-05T11:53:33.984Z,989.49
2019-03-05T11:55:33.974Z,989.56
2019-03-05T11:57:33.991Z,989.48
2019-03-05T11:59:33.984Z,989.55
2019-03-05T12:01:33.998Z,989.53
2019-03-05T12:03:33.939Z,989.56
2019-03-05T12:05:33.943Z,989.74
2019-03-05T12:07:33.941Z,989.68
2019-03-05T12:09:33.996Z,989.65
2019-03-05T12:11:33.985Z,989.64
2019-03-05T12:13:33.985Z,989.62
2019-03-05T12:15:34.015Z,989.63
2019-03-05T12:17:34.015Z,989.64
2019-03-05T12:19:33.923Z,989.56
2019-03-05T12:21:33.960Z,989.68
2019-03-05T12:23:33.976Z,989.65
2019-03-05T12:25:36.150Z,989.68
2019-03-05T12:27:35.815Z,989.76
2019-03-05T12:29:33.988Z,989.77
2019-03-05T12:31:34.037Z,989.85
2019-03-05T12:33:34.055Z,989.84
2019-03-05T12:35:35.481Z,989.87
2019-03-05T12:37:34.012Z,989.89
2019-03-05T12:39:34.027Z,989.87
2019-03-05T12:41:33.988Z,989.93
2019-03-05T12:43:33.991Z,989.90
2019-03-05T12:45:34.032Z,989.96
2019-03-05T12:47:34.019Z,989.91
2019-03-05T12:49:33.942Z,989.90
2019-03-05T12:51:34.074Z,989.90
2019-03-05T12:53:34.023Z,989.90
2019-03-05T12:55:33.986Z,989.83
2019-03-05T12:57:33.997Z,989.82
2019-03-05T12:59:34.009Z,989.95
2019-03-05T13:01:34.984Z,989.87
2019-03-05T13:03:34.039Z,989.90
2019-03-05T13:05:34.047Z,989.86
2019-03-05T13:07:34.058Z,989.84
2019-03-05T13:09:33.996Z,989.84
2019-03-05T13:11:33.981Z,989.91
2019-03-05T13:13:34.067Z,990.01
2019-03-05T13:15:34.031Z,989.97
2019-03-05T13:17:34.034Z,990.09
2019-03-05T13:19:34.050Z,990.00
2019-03-05T13:21:34.075Z,990.01
2019-03-05T13:23:34.062Z,990.13
2019-03-05T13:25:33.978Z,990.11
2019-03-05T13:27:34.005Z,990.15
2019-03-05T13:29:34.009Z,990.20
2019-03-05T13:31:34.021Z,990.02
2019-03-05T13:33:37.605Z,990.04
2019-03-05T13:35:33.982Z,990.16
2019-03-05T13:37:34.101Z,990.10
2019-03-05T13:39:34.103Z,990.20
2019-03-05T13:41:34.020Z,990.19
2019-03-05T13:43:34.025Z,990.22
2019-03-05T13:45:34.047Z,990.22
2019-03-05T13:47:37.136Z,990.33
2019-03-05T13:49:40.768Z,990.38
2019-03-05T13:51:34.118Z,990.45
2019-03-05T13:53:34.006Z,990.45
2019-03-05T13:55:34.111Z,990.42
2019-03-05T13:57:34.024Z,990.35
2019-03-05T13:59:34.038Z,990.39
2019-03-05T14:01:34.109Z,990.42
2019-03-05T14:03:34.127Z,990.41
2019-03-05T14:05:34.087Z,990.42
2019-03-05T14:07:34.155Z,990.51
2019-03-05T14:09:34.166Z,990.50
2019-03-05T14:11:34.025Z,990.53
2019-03-05T14:13:34.064Z,990.55
2019-03-05T14:15:34.100Z,990.65
2019-03-05T14:17:34.075Z,990.62
2019-03-05T14:19:34.097Z,990.62
2019-03-05T14:21:34.221Z,990.68
2019-03-05T14:23:34.108Z,990.68
2019-03-05T14:25:34.132Z,990.72
2019-03-05T14:27:34.114Z,990.61
2019-03-05T14:29:34.179Z,990.69
2019-03-05T14:31:34.057Z,990.66
2019-03-05T14:33:34.181Z,990.79
2019-03-05T14:35:34.088Z,990.65
2019-03-05T14:37:34.102Z,990.73
2019-03-05T14:39:34.179Z,990.69
2019-03-05T14:41:34.195Z,990.64
2019-03-05T14:43:34.340Z,990.78
2019-03-05T14:45:34.068Z,990.67
2019-03-05T14:47:34.073Z,990.77
2019-03-05T14:49:34.107Z,990.70
2019-03-05T14:51:34.138Z,990.66
